Time;durP1;ratioP1;P1;durP2;ratioP2;P2;SDS_P1;SDS_P2;PMS_P1;PMS_P2;Temp;Humidity;BMP_temperature;BMP_pressure;BME280_temperature;BME280_humidity;BME280_pressure;Samples;Min_cycle;Max_cycle;Signal;HPM_P1;HPM_P2
2022/10/10 00:02:09;;;;;;;31.48;25.77;;;;;;;;;;5078913;28;20055;-75
2022/10/10 00:04:34;;;;;;;31.75;28.23;;;;;;;;;;5080475;28;20028;-72
2022/10/10 00:07:00;;;;;;;31.90;26.13;;;;;;;;;;5080778;28;20032;-72
2022/10/10 00:09:25;;;;;;;31.50;28.35;;;;;;;;;;5078404;28;20349;-74
2022/10/10 00:11:50;;;;;;;33.88;30.23;;;;;;;;;;5079965;28;20063;-74
2022/10/10 00:14:16;;;;;;;37.05;32.92;;;;;;;;;;5079845;28;20028;-75
2022/10/10 00:16:41;;;;;;;33.88;29.80;;;;;;;;;;5078707;28;20138;-74
2022/10/10 00:19:06;;;;;;;40.72;31.95;;;;;;;;;;5079444;28;20038;-74
2022/10/10 00:21:32;;;;;;;41.88;33.10;;;;;;;;;;5079239;28;20112;-74
2022/10/10 00:23:57;;;;;;;35.05;30.98;;;;;;;;;;5077399;28;20035;-73
2022/10/10 00:26:23;;;;;;;34.25;30.60;;;;;;;;;;5079959;28;20028;-73
2022/10/10 00:28:48;;;;;;;31.63;28.38;;;;;;;;;;5077344;28;20105;-75
2022/10/10 00:31:14;;;;;;;31.40;28.05;;;;;;;;;;5078071;28;20044;-74
2022/10/10 00:33:39;;;;;;;28.67;25.63;;;;;;;;;;5078879;28;20047;-75
2022/10/10 00:36:05;;;;;;;30.30;26.40;;;;;;;;;;5078026;28;20043;-73
2022/10/10 00:38:31;;;;;;;31.10;26.98;;;;;;;;;;5066933;28;20046;-73
2022/10/10 00:40:56;;;;;;;38.58;28.92;;;;;;;;;;5078371;28;20023;-73
2022/10/10 00:43:23;;;;;;;34.65;27.60;;;;;;;;;;5079791;28;20111;-73
2022/10/10 00:45:49;;;;;;;29.33;26.13;;;;;;;;;;5079705;28;20040;-74
2022/10/10 00:48:17;;;;;;;35.53;28.00;;;;;;;;;;5079781;28;20093;-74
2022/10/10 00:51:02;;;;;;;28.52;25.25;;;;;;;;;;5080016;28;20035;-73
2022/10/10 00:53:47;;;;;;;29.15;26.10;;;;;;;;;;5078844;28;20035;-75
2022/10/10 00:56:13;;;;;;;40.58;36.38;;;;;;;;;;5079080;28;20435;-73
2022/10/10 00:58:40;;;;;;;40.35;35.65;;;;;;;;;;5084278;28;20028;-72
2022/10/10 01:01:05;;;;;;;31.33;27.27;;;;;;;;;;5084394;28;20024;-75
2022/10/10 01:03:31;;;;;;;29.38;26.02;;;;;;;;;;5076230;28;20041;-76
2022/10/10 01:05:56;;;;;;;37.05;30.48;;;;;;;;;;5076381;28;20036;-74
2022/10/10 01:08:22;;;;;;;34.53;28.70;;;;;;;;;;5083525;28;20055;-74
2022/10/10 01:10:59;;;;;;;32.25;27.98;;;;;;;;;;5083478;28;20426;-73
2022/10/10 01:13:48;;;;;;;27.55;24.65;;;;;;;;;;5082442;28;20019;-74
2022/10/10 01:16:23;;;;;;;26.17;23.38;;;;;;;;;;5080941;28;20051;-74
2022/10/10 01:19:00;;;;;;;24.83;22.25;;;;;;;;;;5071630;28;20328;-75
2022/10/10 01:21:31;;;;;;;24.60;22.10;;;;;;;;;;5082201;28;20355;-76
2022/10/10 01:24:13;;;;;;;26.27;23.48;;;;;;;;;;5082147;28;20043;-75
2022/10/10 01:26:44;;;;;;;29.15;25.55;;;;;;;;;;5082813;28;20337;-75
2022/10/10 01:29:10;;;;;;;29.92;25.80;;;;;;;;;;5083675;28;20031;-76
2022/10/10 01:31:41;;;;;;;26.73;24.08;;;;;;;;;;5082951;28;20143;-74
2022/10/10 01:34:15;;;;;;;29.10;26.13;;;;;;;;;;5082157;28;20379;-74
2022/10/10 01:36:46;;;;;;;32.58;28.27;;;;;;;;;;5083481;28;20092;-74
2022/10/10 01:39:30;;;;;;;31.45;28.08;;;;;;;;;;5081215;28;20024;-76
2022/10/10 01:42:02;;;;;;;32.70;29.30;;;;;;;;;;5071613;28;20069;-75
2022/10/10 01:44:27;;;;;;;36.50;30.30;;;;;;;;;;5082894;28;20028;-74
2022/10/10 01:46:53;;;;;;;34.47;30.83;;;;;;;;;;5081319;28;20055;-75
2022/10/10 01:49:27;;;;;;;36.03;32.60;;;;;;;;;;5082270;28;20031;-73
2022/10/10 01:51:52;;;;;;;34.60;30.90;;;;;;;;;;5080606;28;20020;-74
2022/10/10 01:54:25;;;;;;;33.35;29.92;;;;;;;;;;5082040;28;20024;-74
2022/10/10 01:57:10;;;;;;;34.08;30.73;;;;;;;;;;5081756;28;20522;-74
2022/10/10 02:00:07;;;;;;;30.20;27.05;;;;;;;;;;5082701;28;20035;-75
2022/10/10 02:02:42;;;;;;;31.10;27.85;;;;;;;;;;5051466;28;20616;-74
2022/10/10 02:05:20;;;;;;;31.80;27.77;;;;;;;;;;5039268;28;20079;-76
2022/10/10 02:07:50;;;;;;;35.40;31.70;;;;;;;;;;5053913;28;20032;-75
2022/10/10 02:10:19;;;;;;;35.15;31.65;;;;;;;;;;5051913;28;20023;-74
2022/10/10 02:12:45;;;;;;;34.92;31.33;;;;;;;;;;5050435;28;20356;-74
2022/10/10 02:15:13;;;;;;;35.75;32.03;;;;;;;;;;5050516;28;20043;-75
2022/10/10 02:17:39;;;;;;;36.40;32.80;;;;;;;;;;5040431;28;20090;-75
2022/10/10 02:20:06;;;;;;;36.90;33.45;;;;;;;;;;5041861;28;20161;-74
2022/10/10 02:22:33;;;;;;;42.92;38.90;;;;;;;;;;5054456;28;20455;-75
2022/10/10 02:24:58;;;;;;;45.15;40.63;;;;;;;;;;5052953;28;20044;-74
2022/10/10 02:27:42;;;;;;;42.90;38.85;;;;;;;;;;5038576;28;20039;-74
2022/10/10 02:30:08;;;;;;;42.75;38.75;;;;;;;;;;5051171;28;20032;-74
2022/10/10 02:32:37;;;;;;;49.28;41.05;;;;;;;;;;5050946;28;20036;-74
2022/10/10 02:35:07;;;;;;;48.05;40.97;;;;;;;;;;5047686;28;20130;-75
2022/10/10 02:37:33;;;;;;;41.60;37.20;;;;;;;;;;5037024;28;20047;-74
2022/10/10 02:40:00;;;;;;;40.78;36.55;;;;;;;;;;5080708;28;20020;-75
2022/10/10 02:42:26;;;;;;;40.33;36.05;;;;;;;;;;5071444;28;20016;-74
2022/10/10 02:44:52;;;;;;;40.90;36.10;;;;;;;;;;5079668;28;20077;-74
2022/10/10 02:47:18;;;;;;;41.25;36.13;;;;;;;;;;5082234;28;20745;-76
2022/10/10 02:49:43;;;;;;;38.05;33.92;;;;;;;;;;5081208;28;20036;-75
2022/10/10 02:52:09;;;;;;;30.80;27.05;;;;;;;;;;5082277;28;20028;-76
2022/10/10 02:54:35;;;;;;;30.77;26.05;;;;;;;;;;5080966;28;20024;-74
2022/10/10 02:57:00;;;;;;;32.22;29.10;;;;;;;;;;5082105;28;20032;-73
2022/10/10 02:59:25;;;;;;;31.95;28.70;;;;;;;;;;5080016;28;20036;-74
2022/10/10 03:01:51;;;;;;;34.58;31.02;;;;;;;;;;5081034;28;20116;-75
2022/10/10 03:04:16;;;;;;;32.55;29.45;;;;;;;;;;5080775;28;20020;-75
2022/10/10 03:06:42;;;;;;;29.58;26.58;;;;;;;;;;5082097;28;20048;-74
2022/10/10 03:09:07;;;;;;;30.13;27.17;;;;;;;;;;5076830;28;21120;-75
2022/10/10 03:11:33;;;;;;;32.55;29.25;;;;;;;;;;5073278;28;20040;-74
2022/10/10 03:13:58;;;;;;;33.50;30.00;;;;;;;;;;5080970;28;20585;-73
2022/10/10 03:16:23;;;;;;;30.42;27.45;;;;;;;;;;5080838;28;20016;-74
2022/10/10 03:18:49;;;;;;;28.23;25.50;;;;;;;;;;5080087;28;20493;-73
2022/10/10 03:21:14;;;;;;;32.53;29.10;;;;;;;;;;5081095;28;20024;-72
2022/10/10 03:23:40;;;;;;;30.27;27.35;;;;;;;;;;5080994;28;20446;-74
2022/10/10 03:26:05;;;;;;;27.80;25.20;;;;;;;;;;5080976;28;20024;-73
2022/10/10 03:28:31;;;;;;;28.23;25.48;;;;;;;;;;5080351;28;20541;-76
2022/10/10 03:30:56;;;;;;;29.70;26.60;;;;;;;;;;5080799;28;20036;-73
2022/10/10 03:33:21;;;;;;;27.55;24.70;;;;;;;;;;5079265;28;20104;-73
2022/10/10 03:35:47;;;;;;;26.27;23.85;;;;;;;;;;5077870;28;20336;-73
2022/10/10 03:38:13;;;;;;;26.33;23.70;;;;;;;;;;5071320;28;20028;-72
2022/10/10 03:40:42;;;;;;;27.15;24.25;;;;;;;;;;5079808;28;20024;-76
2022/10/10 03:43:08;;;;;;;27.27;24.57;;;;;;;;;;5080580;28;20023;-72
2022/10/10 03:45:34;;;;;;;28.58;25.67;;;;;;;;;;5080075;28;20055;-74
2022/10/10 03:47:59;;;;;;;31.05;27.88;;;;;;;;;;5079200;28;20028;-72
2022/10/10 03:50:24;;;;;;;31.35;28.10;;;;;;;;;;5080611;28;20351;-73
2022/10/10 03:52:50;;;;;;;31.02;28.13;;;;;;;;;;5070534;28;20051;-74
2022/10/10 03:55:15;;;;;;;48.63;43.30;;;;;;;;;;5079542;28;20877;-73
2022/10/10 03:57:40;;;;;;;66.25;58.97;;;;;;;;;;5070586;28;20708;-74
2022/10/10 04:00:06;;;;;;;50.35;41.50;;;;;;;;;;5078374;28;20611;-74
2022/10/10 04:02:32;;;;;;;49.28;39.60;;;;;;;;;;5069330;28;20129;-74
2022/10/10 04:04:57;;;;;;;47.70;42.08;;;;;;;;;;5060689;28;21170;-73
2022/10/10 04:07:22;;;;;;;48.00;39.63;;;;;;;;;;5061568;28;20054;-73
2022/10/10 04:09:48;;;;;;;42.35;37.50;;;;;;;;;;5070060;28;20035;-72
2022/10/10 04:12:13;;;;;;;43.10;37.33;;;;;;;;;;5067012;28;20107;-72
2022/10/10 04:14:39;;;;;;;43.58;34.67;;;;;;;;;;5067835;28;20047;-75
2022/10/10 04:17:04;;;;;;;47.90;34.17;;;;;;;;;;5069180;28;20099;-74
2022/10/10 04:19:29;;;;;;;41.97;32.25;;;;;;;;;;5070784;28;20024;-73
2022/10/10 04:21:55;;;;;;;47.20;34.42;;;;;;;;;;5078840;28;20681;-75
2022/10/10 04:24:20;;;;;;;49.20;36.03;;;;;;;;;;5078392;28;20116;-74
2022/10/10 04:26:45;;;;;;;50.88;35.60;;;;;;;;;;5080221;28;20028;-73
2022/10/10 04:29:11;;;;;;;44.15;35.65;;;;;;;;;;5074799;28;20977;-74
2022/10/10 04:31:36;;;;;;;53.55;36.00;;;;;;;;;;5072129;28;20032;-73
2022/10/10 04:34:02;;;;;;;46.13;32.22;;;;;;;;;;5079762;28;20028;-73
2022/10/10 04:36:27;;;;;;;49.75;34.60;;;;;;;;;;5079898;28;20028;-73
2022/10/10 04:38:52;;;;;;;46.00;33.00;;;;;;;;;;5072508;28;20032;-73
2022/10/10 04:41:18;;;;;;;42.90;34.00;;;;;;;;;;5073903;28;20027;-75
2022/10/10 04:43:43;;;;;;;44.97;34.97;;;;;;;;;;5080096;28;20043;-73
2022/10/10 04:46:08;;;;;;;54.58;43.47;;;;;;;;;;5080275;28;20127;-73
2022/10/10 04:48:34;;;;;;;64.63;49.53;;;;;;;;;;5080599;28;20062;-75
2022/10/10 04:50:59;;;;;;;66.57;51.28;;;;;;;;;;5078122;28;20032;-74
2022/10/10 04:53:25;;;;;;;68.85;58.15;;;;;;;;;;5078868;28;20012;-80
2022/10/10 04:55:51;;;;;;;61.95;52.85;;;;;;;;;;5076574;28;20617;-77
2022/10/10 04:58:17;;;;;;;62.20;51.90;;;;;;;;;;5079827;28;20032;-76
2022/10/10 05:00:42;;;;;;;63.05;54.08;;;;;;;;;;5079156;28;20456;-77
2022/10/10 05:03:10;;;;;;;55.95;46.03;;;;;;;;;;5075724;28;20024;-76
2022/10/10 05:05:35;;;;;;;75.40;62.47;;;;;;;;;;5073582;28;20454;-75
2022/10/10 05:08:00;;;;;;;82.93;65.70;;;;;;;;;;5079757;28;20024;-76
2022/10/10 05:10:26;;;;;;;75.75;62.00;;;;;;;;;;5081775;28;20359;-79
2022/10/10 05:12:51;;;;;;;75.20;62.13;;;;;;;;;;5078922;28;20020;-81
2022/10/10 05:15:17;;;;;;;56.78;49.70;;;;;;;;;;5079292;28;20382;-77
2022/10/10 05:17:42;;;;;;;111.35;83.57;;;;;;;;;;5079565;28;20036;-77
2022/10/10 05:20:08;;;;;;;129.93;95.63;;;;;;;;;;5067396;28;20030;-81
2022/10/10 05:22:34;;;;;;;52.85;44.70;;;;;;;;;;5066154;28;20023;-75
2022/10/10 05:24:59;;;;;;;50.08;44.63;;;;;;;;;;5066192;28;20435;-79
2022/10/10 05:27:25;;;;;;;50.65;44.97;;;;;;;;;;5066667;28;20035;-78
2022/10/10 05:29:51;;;;;;;41.97;37.40;;;;;;;;;;5066988;28;20430;-78
2022/10/10 05:32:17;;;;;;;41.05;36.80;;;;;;;;;;5072198;28;20036;-78
2022/10/10 05:34:42;;;;;;;53.50;46.22;;;;;;;;;;5081708;28;21144;-77
2022/10/10 05:37:08;;;;;;;59.15;52.65;;;;;;;;;;5064352;28;20039;-78
2022/10/10 05:39:34;;;;;;;61.38;54.63;;;;;;;;;;5064359;28;20447;-77
2022/10/10 05:41:59;;;;;;;47.65;42.20;;;;;;;;;;5066231;28;20118;-77
2022/10/10 05:44:25;;;;;;;40.08;35.88;;;;;;;;;;5070163;28;20020;-78
2022/10/10 05:46:50;;;;;;;55.90;48.05;;;;;;;;;;5082687;28;20752;-78
2022/10/10 05:49:16;;;;;;;50.10;42.47;;;;;;;;;;5083862;28;20127;-82
2022/10/10 05:51:41;;;;;;;100.75;78.82;;;;;;;;;;5083981;28;20431;-77
2022/10/10 05:54:06;;;;;;;135.15;112.53;;;;;;;;;;5081906;28;20027;-76
2022/10/10 05:56:32;;;;;;;90.72;77.35;;;;;;;;;;5082601;28;20036;-78
2022/10/10 05:58:57;;;;;;;52.03;46.83;;;;;;;;;;5083860;28;20057;-78
2022/10/10 06:01:22;;;;;;;36.70;33.03;;;;;;;;;;5081692;28;20043;-79
2022/10/10 06:03:51;;;;;;;44.80;40.05;;;;;;;;;;5072986;28;20028;-79
2022/10/10 06:06:17;;;;;;;39.38;35.38;;;;;;;;;;5070304;28;20043;-79
2022/10/10 06:08:43;;;;;;;37.28;32.97;;;;;;;;;;5084027;28;20107;-76
2022/10/10 06:11:09;;;;;;;359.38;229.48;;;;;;;;;;5076027;28;20091;-80
2022/10/10 06:13:36;;;;;;;90.75;69.22;;;;;;;;;;5068738;28;20092;-79
2022/10/10 06:16:01;;;;;;;160.50;100.95;;;;;;;;;;5069514;28;20043;-76
2022/10/10 06:18:27;;;;;;;127.65;86.22;;;;;;;;;;5082000;28;20036;-76
2022/10/10 06:20:52;;;;;;;142.25;92.05;;;;;;;;;;5083971;28;20028;-78
2022/10/10 06:23:18;;;;;;;84.85;64.00;;;;;;;;;;5083252;28;20088;-76
2022/10/10 06:25:44;;;;;;;63.70;51.03;;;;;;;;;;5080040;28;20431;-77
2022/10/10 06:28:10;;;;;;;54.13;45.25;;;;;;;;;;5082207;28;20028;-76
2022/10/10 06:30:40;;;;;;;124.18;78.00;;;;;;;;;;5080525;28;20024;-76
2022/10/10 06:33:06;;;;;;;324.20;217.63;;;;;;;;;;5081857;28;20097;-76
2022/10/10 06:35:31;;;;;;;175.40;118.28;;;;;;;;;;5082217;28;20043;-77
2022/10/10 06:37:57;;;;;;;99.60;71.47;;;;;;;;;;5070299;28;20394;-76
2022/10/10 06:40:22;;;;;;;60.70;54.17;;;;;;;;;;5067360;28;20035;-77
2022/10/10 06:42:47;;;;;;;346.25;257.60;;;;;;;;;;5067894;28;20123;-77
2022/10/10 06:45:13;;;;;;;161.98;126.22;;;;;;;;;;5068330;28;20024;-76
2022/10/10 06:47:38;;;;;;;225.90;185.02;;;;;;;;;;5076738;28;20031;-78
2022/10/10 06:50:04;;;;;;;195.93;174.68;;;;;;;;;;5082067;28;20016;-77
2022/10/10 06:52:29;;;;;;;98.88;87.97;;;;;;;;;;5083786;28;20024;-77
2022/10/10 06:54:55;;;;;;;75.22;67.25;;;;;;;;;;5081638;28;20037;-78
2022/10/10 06:57:20;;;;;;;57.42;51.72;;;;;;;;;;5082906;28;20882;-78
2022/10/10 06:59:45;;;;;;;52.03;46.42;;;;;;;;;;5083374;28;20024;-76
2022/10/10 07:02:12;;;;;;;48.50;43.83;;;;;;;;;;5083697;28;20035;-78
2022/10/10 07:04:37;;;;;;;48.05;43.15;;;;;;;;;;5082640;28;20028;-76
2022/10/10 07:07:03;;;;;;;48.65;43.63;;;;;;;;;;5082809;28;20470;-78
2022/10/10 07:09:28;;;;;;;58.60;52.78;;;;;;;;;;5082766;28;20077;-78
2022/10/10 07:11:53;;;;;;;119.20;95.07;;;;;;;;;;5080469;28;20024;-78
2022/10/10 07:14:19;;;;;;;247.20;172.52;;;;;;;;;;5083277;28;20355;-78
2022/10/10 07:16:44;;;;;;;204.27;142.30;;;;;;;;;;5071702;28;20109;-77
2022/10/10 07:19:09;;;;;;;159.70;109.68;;;;;;;;;;5068768;28;20032;-79
2022/10/10 07:21:35;;;;;;;120.43;87.70;;;;;;;;;;5072151;28;20885;-80
2022/10/10 07:24:00;;;;;;;172.23;128.95;;;;;;;;;;5075169;28;20020;-77
2022/10/10 07:26:29;;;;;;;102.90;83.15;;;;;;;;;;5080107;28;20032;-76
2022/10/10 07:28:55;;;;;;;91.47;78.22;;;;;;;;;;5082200;28;20028;-78
2022/10/10 07:31:20;;;;;;;52.50;46.08;;;;;;;;;;5066133;28;20302;-79
2022/10/10 07:33:47;;;;;;;105.30;88.57;;;;;;;;;;5066517;28;20031;-79
2022/10/10 07:36:12;;;;;;;111.47;99.55;;;;;;;;;;5067076;28;20036;-79
2022/10/10 07:38:38;;;;;;;96.15;86.38;;;;;;;;;;5068120;28;20694;-78
2022/10/10 07:41:05;;;;;;;92.72;70.72;;;;;;;;;;5066249;28;20086;-79
2022/10/10 07:43:30;;;;;;;58.88;47.40;;;;;;;;;;5069959;28;20482;-79
2022/10/10 07:45:56;;;;;;;105.80;82.85;;;;;;;;;;5082425;28;20129;-77
2022/10/10 07:48:21;;;;;;;60.28;46.80;;;;;;;;;;5083260;28;20027;-77
2022/10/10 07:50:46;;;;;;;64.78;46.50;;;;;;;;;;5081405;28;20032;-78
2022/10/10 07:53:12;;;;;;;63.63;47.72;;;;;;;;;;5065394;28;20050;-78
2022/10/10 07:55:38;;;;;;;54.72;45.67;;;;;;;;;;5080902;28;20035;-79
2022/10/10 07:58:03;;;;;;;71.22;54.17;;;;;;;;;;5081655;28;20031;-78
2022/10/10 08:00:29;;;;;;;82.22;65.22;;;;;;;;;;5080834;28;20032;-79
2022/10/10 08:02:54;;;;;;;62.47;48.72;;;;;;;;;;5072346;28;20053;-76
2022/10/10 08:05:20;;;;;;;55.53;46.60;;;;;;;;;;5072233;28;20364;-74
2022/10/10 08:07:46;;;;;;;49.55;40.40;;;;;;;;;;5078429;28;20028;-76
2022/10/10 08:10:11;;;;;;;46.03;37.70;;;;;;;;;;5076362;28;20032;-76
2022/10/10 08:12:36;;;;;;;45.15;39.65;;;;;;;;;;5079192;28;20431;-76
2022/10/10 08:15:03;;;;;;;43.50;34.83;;;;;;;;;;5079895;28;20032;-77
2022/10/10 08:17:28;;;;;;;55.28;44.10;;;;;;;;;;5078562;28;20039;-77
2022/10/10 08:19:53;;;;;;;99.68;75.82;;;;;;;;;;5079229;28;20031;-77
2022/10/10 08:22:19;;;;;;;46.67;38.92;;;;;;;;;;5075269;28;20475;-75
2022/10/10 08:24:44;;;;;;;58.50;49.55;;;;;;;;;;5075346;28;20032;-77
2022/10/10 08:27:09;;;;;;;60.50;53.05;;;;;;;;;;5080986;28;20102;-76
2022/10/10 08:29:35;;;;;;;73.72;64.65;;;;;;;;;;5080230;28;20020;-76
2022/10/10 08:32:00;;;;;;;73.97;62.13;;;;;;;;;;5080141;28;20031;-76
2022/10/10 08:34:25;;;;;;;74.95;66.65;;;;;;;;;;5080521;28;20055;-75
2022/10/10 08:36:51;;;;;;;49.20;44.10;;;;;;;;;;5080180;28;20165;-76
2022/10/10 08:39:16;;;;;;;38.45;34.42;;;;;;;;;;5080552;28;20028;-77
2022/10/10 08:41:59;;;;;;;45.63;39.30;;;;;;;;;;5080625;28;20028;-76
2022/10/10 08:44:31;;;;;;;51.97;44.45;;;;;;;;;;5080427;28;20051;-76
2022/10/10 08:47:06;;;;;;;47.00;41.50;;;;;;;;;;5079707;28;20354;-77
2022/10/10 08:49:39;;;;;;;43.40;38.85;;;;;;;;;;5079852;28;20097;-75
2022/10/10 08:52:23;;;;;;;42.60;37.65;;;;;;;;;;5079499;28;20020;-76
2022/10/10 08:54:51;;;;;;;61.20;54.40;;;;;;;;;;5079661;28;20032;-75
2022/10/10 08:57:24;;;;;;;71.90;61.95;;;;;;;;;;5079390;28;20067;-76
2022/10/10 08:59:53;;;;;;;78.38;68.65;;;;;;;;;;5080111;28;20748;-76
2022/10/10 09:02:18;;;;;;;58.15;51.85;;;;;;;;;;5080547;28;20108;-77
2022/10/10 09:04:43;;;;;;;63.17;50.03;;;;;;;;;;5079549;28;20048;-76
2022/10/10 09:07:24;;;;;;;70.80;59.30;;;;;;;;;;5078135;28;20116;-77
2022/10/10 09:10:10;;;;;;;47.92;41.65;;;;;;;;;;5080397;28;20532;-76
2022/10/10 09:12:43;;;;;;;57.28;48.58;;;;;;;;;;5067161;28;20059;-77
2022/10/10 09:15:11;;;;;;;64.13;54.85;;;;;;;;;;5078808;28;20028;-76
2022/10/10 09:17:50;;;;;;;54.67;43.38;;;;;;;;;;5066076;28;20424;-76
2022/10/10 09:20:27;;;;;;;53.37;43.77;;;;;;;;;;5070617;28;20089;-76
2022/10/10 09:23:18;;;;;;;49.33;40.08;;;;;;;;;;5067111;28;20265;-75
2022/10/10 09:25:53;;;;;;;53.50;46.03;;;;;;;;;;5065142;28;20447;-77
2022/10/10 09:28:26;;;;;;;51.00;44.33;;;;;;;;;;5068116;28;20039;-77
2022/10/10 09:30:53;;;;;;;61.80;50.20;;;;;;;;;;5069637;28;20351;-75
2022/10/10 09:33:24;;;;;;;56.78;41.97;;;;;;;;;;5070052;28;20059;-76
2022/10/10 09:35:50;;;;;;;47.47;38.63;;;;;;;;;;5072778;28;20614;-76
2022/10/10 09:38:22;;;;;;;57.13;45.33;;;;;;;;;;5067765;28;20032;-76
2022/10/10 09:40:52;;;;;;;50.85;41.83;;;;;;;;;;5071339;28;20051;-78
2022/10/10 09:43:19;;;;;;;49.13;39.40;;;;;;;;;;5083957;28;20024;-76
2022/10/10 09:45:51;;;;;;;53.60;43.92;;;;;;;;;;5072477;28;20083;-78
2022/10/10 09:48:17;;;;;;;50.13;43.42;;;;;;;;;;5079528;28;20043;-79
2022/10/10 09:50:43;;;;;;;56.50;47.63;;;;;;;;;;5085131;28;20024;-79
2022/10/10 09:53:11;;;;;;;57.97;46.78;;;;;;;;;;5084762;28;20027;-81
2022/10/10 09:55:38;;;;;;;66.63;51.38;;;;;;;;;;5083987;28;20030;-78
2022/10/10 09:58:11;;;;;;;71.22;55.72;;;;;;;;;;5080185;28;20080;-78
2022/10/10 10:00:37;;;;;;;61.38;51.30;;;;;;;;;;5076353;28;20068;-80
2022/10/10 10:03:10;;;;;;;71.45;61.30;;;;;;;;;;5084254;28;20439;-78
2022/10/10 10:05:35;;;;;;;55.63;45.67;;;;;;;;;;5084347;28;20028;-80
2022/10/10 10:08:00;;;;;;;55.38;45.70;;;;;;;;;;5083302;28;20115;-78
2022/10/10 10:10:26;;;;;;;52.28;42.38;;;;;;;;;;5083717;28;20044;-77
2022/10/10 10:12:53;;;;;;;53.70;44.55;;;;;;;;;;5084655;28;20023;-78
2022/10/10 10:15:19;;;;;;;45.88;39.83;;;;;;;;;;5084250;28;20500;-77
2022/10/10 10:17:44;;;;;;;51.72;42.33;;;;;;;;;;5082807;28;20028;-77
2022/10/10 10:20:32;;;;;;;51.25;43.50;;;;;;;;;;5072770;28;20116;-78
2022/10/10 10:22:58;;;;;;;54.17;44.13;;;;;;;;;;5080150;28;20078;-79
2022/10/10 10:25:35;;;;;;;49.60;40.70;;;;;;;;;;5082973;28;20715;-79
2022/10/10 10:28:20;;;;;;;47.60;41.20;;;;;;;;;;5084708;28;20035;-81
2022/10/10 10:30:45;;;;;;;49.10;40.75;;;;;;;;;;5084156;28;20031;-77
2022/10/10 10:33:16;;;;;;;46.97;38.92;;;;;;;;;;5075537;28;20305;-78
2022/10/10 10:35:50;;;;;;;55.75;41.75;;;;;;;;;;5073015;28;20027;-79
2022/10/10 10:38:34;;;;;;;47.33;39.15;;;;;;;;;;5078073;28;20036;-79
2022/10/10 10:41:25;;;;;;;51.92;44.55;;;;;;;;;;5071439;28;20136;-78
2022/10/10 10:44:11;;;;;;;52.35;45.58;;;;;;;;;;5065252;28;20113;-79
2022/10/10 10:46:36;;;;;;;52.20;41.88;;;;;;;;;;5069011;28;20459;-79
2022/10/10 10:49:08;;;;;;;46.25;39.42;;;;;;;;;;5069068;28;20028;-77
2022/10/10 10:51:33;;;;;;;56.08;47.47;;;;;;;;;;5068842;28;20023;-77
2022/10/10 10:53:58;;;;;;;60.80;54.15;;;;;;;;;;5067950;28;20039;-76
2022/10/10 10:56:34;;;;;;;50.78;42.90;;;;;;;;;;5068278;28;20042;-76
2022/10/10 10:59:15;;;;;;;50.00;42.08;;;;;;;;;;5066960;28;20032;-78
2022/10/10 11:01:41;;;;;;;50.58;43.53;;;;;;;;;;5069107;28;20028;-78
2022/10/10 11:04:15;;;;;;;55.08;47.08;;;;;;;;;;5067906;28;20038;-77
2022/10/10 11:06:59;;;;;;;50.13;41.90;;;;;;;;;;5068825;28;20512;-74
2022/10/10 11:09:29;;;;;;;46.42;41.42;;;;;;;;;;5066837;28;20344;-78
2022/10/10 11:12:06;;;;;;;50.35;43.20;;;;;;;;;;5065997;28;20354;-75
2022/10/10 11:14:52;;;;;;;48.15;42.50;;;;;;;;;;5066432;28;20402;-77
2022/10/10 11:17:18;;;;;;;54.38;48.63;;;;;;;;;;5067463;28;20040;-77
2022/10/10 11:19:48;;;;;;;50.60;44.65;;;;;;;;;;5068282;28;20105;-75
2022/10/10 11:22:16;;;;;;;51.33;44.45;;;;;;;;;;5067176;28;20024;-76
2022/10/10 11:24:47;;;;;;;54.08;45.80;;;;;;;;;;5066127;28;20042;-75
2022/10/10 11:27:36;;;;;;;54.95;42.35;;;;;;;;;;5066134;28;20024;-76
2022/10/10 11:30:13;;;;;;;53.10;44.20;;;;;;;;;;5059887;28;20439;-78
2022/10/10 11:32:42;;;;;;;47.65;41.85;;;;;;;;;;5068130;28;20023;-79
2022/10/10 11:35:13;;;;;;;400.85;256.33;;;;;;;;;;5065824;28;20110;-76
2022/10/10 11:37:42;;;;;;;165.18;112.00;;;;;;;;;;5068332;28;20355;-77
2022/10/10 11:40:13;;;;;;;109.28;80.35;;;;;;;;;;5068170;28;20439;-75
2022/10/10 11:42:42;;;;;;;61.38;52.28;;;;;;;;;;5066933;28;20187;-77
2022/10/10 11:45:27;;;;;;;53.47;47.80;;;;;;;;;;5066889;28;20020;-76
2022/10/10 11:48:11;;;;;;;55.72;49.60;;;;;;;;;;5066138;28;20052;-77
2022/10/10 11:50:41;;;;;;;52.47;46.63;;;;;;;;;;5066190;28;20111;-77
2022/10/10 11:53:06;;;;;;;;;;;;;;;;;;5064300;28;20030;-75
2022/10/10 11:55:40;;;;;;;51.90;43.53;;;;;;;;;;5066003;28;21126;-78
2022/10/10 11:58:06;;;;;;;47.47;42.35;;;;;;;;;;5066753;28;20119;-78
2022/10/10 12:00:34;;;;;;;54.42;45.65;;;;;;;;;;5064018;28;20103;-77
2022/10/10 12:03:00;;;;;;;43.83;39.25;;;;;;;;;;5066435;28;20658;-77
2022/10/10 12:05:27;;;;;;;49.58;44.22;;;;;;;;;;5066367;28;20024;-76
2022/10/10 12:07:55;;;;;;;49.67;43.35;;;;;;;;;;5066160;28;20449;-76
2022/10/10 12:10:22;;;;;;;64.13;57.42;;;;;;;;;;5063879;28;20024;-77
2022/10/10 12:12:50;;;;;;;45.05;40.17;;;;;;;;;;5065523;28;20031;-75
2022/10/10 12:15:30;;;;;;;39.65;35.38;;;;;;;;;;5065549;28;23353;-77
2022/10/10 12:17:56;;;;;;;43.63;39.03;;;;;;;;;;5065740;28;20500;-75
2022/10/10 12:20:22;;;;;;;38.13;33.95;;;;;;;;;;5065418;28;20061;-75
2022/10/10 12:23:04;;;;;;;34.72;30.95;;;;;;;;;;5080578;28;20016;-76
2022/10/10 12:25:44;;;;;;;36.67;32.88;;;;;;;;;;5080203;28;20036;-76
2022/10/10 12:28:13;;;;;;;35.13;31.23;;;;;;;;;;5077786;28;20358;-77
2022/10/10 12:30:47;;;;;;;35.03;31.40;;;;;;;;;;5080037;28;20035;-76
2022/10/10 12:33:43;;;;;;;36.85;33.15;;;;;;;;;;5079254;28;20016;-77
2022/10/10 12:36:17;;;;;;;35.30;30.40;;;;;;;;;;5013641;28;20080;-76
2022/10/10 12:38:58;;;;;;;36.20;32.75;;;;;;;;;;5003114;28;20049;-78
2022/10/10 12:41:43;;;;;;;35.67;31.98;;;;;;;;;;5002351;28;20128;-75
2022/10/10 12:44:22;;;;;;;37.00;33.20;;;;;;;;;;5003135;28;20042;-77
2022/10/10 12:47:08;;;;;;;35.37;31.67;;;;;;;;;;5002127;28;20450;-75
2022/10/10 12:49:33;;;;;;;92.93;83.68;;;;;;;;;;4992984;28;20258;-76
2022/10/10 12:51:59;;;;;;;48.50;43.47;;;;;;;;;;5002898;28;20049;-77
2022/10/10 12:54:28;;;;;;;34.35;30.75;;;;;;;;;;5006683;28;20425;-76
2022/10/10 12:57:00;;;;;;;34.33;30.85;;;;;;;;;;5006477;28;20135;-78
2022/10/10 12:59:25;;;;;;;39.92;34.78;;;;;;;;;;5007808;28;20037;-75
2022/10/10 13:01:55;;;;;;;37.67;33.90;;;;;;;;;;5014273;28;20140;-78
2022/10/10 13:04:22;;;;;;;36.22;32.42;;;;;;;;;;5021979;28;20075;-76
2022/10/10 13:06:50;;;;;;;33.35;29.05;;;;;;;;;;5009417;28;20053;-76
2022/10/10 13:09:17;;;;;;;34.72;30.33;;;;;;;;;;4990479;28;20112;-76
2022/10/10 13:11:52;;;;;;;35.60;30.70;;;;;;;;;;5017559;28;20032;-75
2022/10/10 13:14:18;;;;;;;32.47;29.10;;;;;;;;;;5083834;28;20099;-78
2022/10/10 13:16:43;;;;;;;33.10;29.65;;;;;;;;;;5073922;28;20038;-77
2022/10/10 13:19:16;;;;;;;47.75;37.25;;;;;;;;;;5080194;28;20639;-78
2022/10/10 13:21:41;;;;;;;41.22;34.28;;;;;;;;;;5078360;28;20452;-75
2022/10/10 13:24:13;;;;;;;28.83;26.02;;;;;;;;;;5078825;28;20028;-78
2022/10/10 13:26:42;;;;;;;32.97;29.77;;;;;;;;;;5082351;28;20036;-80
2022/10/10 13:29:26;;;;;;;32.50;28.83;;;;;;;;;;5084268;28;20024;-77
2022/10/10 13:31:53;;;;;;;29.23;26.38;;;;;;;;;;5081829;28;20032;-80
2022/10/10 13:34:21;;;;;;;30.48;27.40;;;;;;;;;;5081853;28;20035;-75
2022/10/10 13:36:47;;;;;;;31.38;27.67;;;;;;;;;;5082404;28;20043;-76
2022/10/10 13:39:16;;;;;;;32.05;28.63;;;;;;;;;;5075741;28;20024;-76
2022/10/10 13:41:46;;;;;;;27.67;24.98;;;;;;;;;;5077929;28;20086;-76
2022/10/10 13:44:19;;;;;;;58.72;52.30;;;;;;;;;;5083365;28;20024;-78
2022/10/10 13:46:44;;;;;;;36.83;32.88;;;;;;;;;;5082895;28;20453;-76
2022/10/10 13:49:23;;;;;;;39.35;35.15;;;;;;;;;;5082918;28;20060;-77
2022/10/10 13:51:59;;;;;;;51.42;43.05;;;;;;;;;;5083537;28;20431;-78
2022/10/10 13:54:36;;;;;;;56.45;45.88;;;;;;;;;;5082503;28;20025;-75
2022/10/10 13:57:02;;;;;;;46.45;37.88;;;;;;;;;;5082872;28;20063;-74
2022/10/10 13:59:28;;;;;;;80.00;67.15;;;;;;;;;;5081078;28;20035;-75
2022/10/10 14:01:58;;;;;;;145.93;116.15;;;;;;;;;;5081127;28;20028;-78
2022/10/10 14:04:25;;;;;;;41.20;36.75;;;;;;;;;;5080963;28;20024;-75
2022/10/10 14:07:06;;;;;;;29.35;26.25;;;;;;;;;;5082491;28;20030;-75
2022/10/10 14:09:31;;;;;;;30.73;27.45;;;;;;;;;;5082164;28;20036;-77
2022/10/10 14:11:59;;;;;;;35.40;31.63;;;;;;;;;;5082908;28;20028;-77
2022/10/10 14:14:25;;;;;;;40.53;36.53;;;;;;;;;;5081739;28;20032;-78
2022/10/10 14:17:01;;;;;;;32.28;29.25;;;;;;;;;;5080968;28;20066;-76
2022/10/10 14:19:26;;;;;;;33.20;29.15;;;;;;;;;;5080255;28;20044;-75
2022/10/10 14:21:51;;;;;;;30.85;27.23;;;;;;;;;;5079972;28;20383;-75
2022/10/10 14:24:17;;;;;;;29.60;26.63;;;;;;;;;;5078839;28;20027;-75
2022/10/10 14:26:42;;;;;;;35.05;31.27;;;;;;;;;;5069398;28;20162;-76